Time;durP1;ratioP1;P1;durP2;ratioP2;P2;SDS_P1;SDS_P2;PMS_P1;PMS_P2;Temp;Humidity;BMP_temperature;BMP_pressure;BME280_temperature;BME280_humidity;BME280_pressure;Samples;Min_cycle;Max_cycle;Signal;HPM_P1;HPM_P2
2022/05/07 04:01:40;;;;;;;8.07;7.35;;;12.20;99.90;;;;;;5407508;23;20213;-70
2022/05/07 04:04:07;;;;;;;7.85;7.25;;;12.30;99.90;;;;;;4973998;28;20205;-70
2022/05/07 04:06:33;;;;;;;7.93;7.22;;;12.30;99.90;;;;;;4974353;28;20279;-70
2022/05/07 04:09:00;;;;;;;7.88;7.18;;;12.30;99.90;;;;;;4973986;28;20267;-70
2022/05/07 04:11:27;;;;;;;7.68;7.07;;;12.30;99.90;;;;;;4973912;28;20240;-70
2022/05/07 04:13:54;;;;;;;7.82;7.13;;;12.30;99.90;;;;;;4988395;23;20554;-69
2022/05/07 04:16:20;;;;;;;9.60;7.90;;;12.30;99.90;;;;;;4974173;28;20232;-70
2022/05/07 04:18:48;;;;;;;9.32;8.52;;;12.40;99.90;;;;;;4974435;28;20299;-69
2022/05/07 04:21:15;;;;;;;8.63;7.82;;;12.50;99.90;;;;;;4973746;28;20669;-69
2022/05/07 04:23:42;;;;;;;8.52;7.72;;;12.50;99.90;;;;;;4974080;28;20279;-68
2022/05/07 04:26:08;;;;;;;8.00;7.35;;;12.60;99.90;;;;;;4974125;28;20255;-68
2022/05/07 04:28:35;;;;;;;8.45;7.75;;;12.60;99.90;;;;;;4974012;28;20262;-69
2022/05/07 04:31:02;;;;;;;8.17;7.50;;;12.70;99.90;;;;;;4973595;28;20217;-68
2022/05/07 04:33:29;;;;;;;17.58;7.88;;;12.70;99.90;;;;;;4973531;28;20522;-70
2022/05/07 04:35:57;;;;;;;8.33;7.60;;;12.70;99.90;;;;;;4973864;28;20212;-69
2022/05/07 04:38:24;;;;;;;7.67;7.07;;;12.70;99.90;;;;;;4973705;28;20468;-69
2022/05/07 04:40:50;;;;;;;8.17;7.37;;;12.70;99.90;;;;;;4973237;28;20467;-69
2022/05/07 04:43:21;;;;;;;8.53;7.73;;;12.80;99.90;;;;;;4973155;28;20499;-71
2022/05/07 04:45:47;;;;;;;9.50;8.73;;;12.80;99.90;;;;;;4973120;28;20838;-68
2022/05/07 04:48:14;;;;;;;7.93;7.33;;;12.80;99.90;;;;;;4973702;28;20875;-68
2022/05/07 04:50:41;;;;;;;8.60;7.80;;;12.90;99.90;;;;;;4972933;28;20476;-69
2022/05/07 04:53:09;;;;;;;8.87;8.07;;;13.00;99.90;;;;;;4973266;28;20491;-69
2022/05/07 04:55:35;;;;;;;8.40;7.60;;;13.10;99.90;;;;;;4972718;28;20503;-69
2022/05/07 04:58:02;;;;;;;7.97;7.23;;;13.30;99.90;;;;;;4973219;28;20479;-69
2022/05/07 05:00:29;;;;;;;7.50;7.00;;;13.70;99.90;;;;;;4972800;28;20893;-69
2022/05/07 05:02:56;;;;;;;7.73;7.00;;;14.00;99.90;;;;;;4972672;28;20622;-69
2022/05/07 05:05:25;;;;;;;7.27;6.77;;;14.10;99.90;;;;;;4972847;28;20488;-69
2022/05/07 05:07:51;;;;;;;7.40;6.70;;;14.20;99.90;;;;;;4972843;28;20671;-68
2022/05/07 05:10:20;;;;;;;7.10;6.63;;;14.30;99.90;;;;;;4972549;28;20498;-69
2022/05/07 05:12:46;;;;;;;7.70;7.10;;;14.30;99.90;;;;;;4972338;28;20475;-70
2022/05/07 05:15:14;;;;;;;7.30;6.63;;;14.30;99.90;;;;;;4972672;28;20565;-68
2022/05/07 05:17:40;;;;;;;7.83;7.13;;;14.30;99.90;;;;;;4972623;28;20538;-70
2022/05/07 05:20:08;;;;;;;8.30;7.60;;;14.30;99.90;;;;;;4972223;28;20836;-69
2022/05/07 05:22:34;;;;;;;7.97;7.30;;;14.40;99.90;;;;;;4972123;28;21071;-69
2022/05/07 05:25:04;;;;;;;8.63;7.13;;;14.50;99.90;;;;;;4972721;28;20528;-68
2022/05/07 05:27:32;;;;;;;8.00;7.40;;;14.50;99.90;;;;;;4973140;28;20460;-68
2022/05/07 05:29:59;;;;;;;7.33;6.63;;;14.60;99.90;;;;;;4972293;28;20460;-68
2022/05/07 05:32:25;;;;;;;6.73;6.23;;;14.70;99.90;;;;;;4972365;28;21007;-68
2022/05/07 05:34:53;;;;;;;7.57;7.00;;;14.80;99.90;;;;;;4972362;28;20736;-67
2022/05/07 05:37:20;;;;;;;7.43;6.87;;;14.90;99.90;;;;;;4972201;28;20464;-68
2022/05/07 05:39:47;;;;;;;7.33;6.83;;;15.00;99.90;;;;;;4971982;28;20468;-69
2022/05/07 05:42:14;;;;;;;7.23;6.60;;;15.10;99.90;;;;;;4972287;28;20467;-68
2022/05/07 05:44:42;;;;;;;8.23;7.30;;;15.20;99.90;;;;;;4972171;28;20510;-69
2022/05/07 05:47:10;;;;;;;6.93;6.43;;;15.30;99.90;;;;;;4972132;28;20530;-69
2022/05/07 05:49:37;;;;;;;7.00;6.40;;;15.40;99.90;;;;;;4972062;28;20965;-68
2022/05/07 05:52:05;;;;;;;7.13;6.43;;;15.40;99.90;;;;;;4971995;28;20472;-68
2022/05/07 05:54:32;;;;;;;7.03;6.53;;;15.50;99.90;;;;;;4971890;28;20546;-68
2022/05/07 05:56:59;;;;;;;6.93;6.20;;;15.60;99.90;;;;;;4971510;28;20463;-67
2022/05/07 05:59:26;;;;;;;7.20;6.60;;;15.70;99.90;;;;;;4971969;28;20470;-69
2022/05/07 06:01:54;;;;;;;7.13;6.43;;;16.00;99.90;;;;;;4971244;28;20468;-70
2022/05/07 06:04:21;;;;;;;6.83;6.33;;;16.50;99.90;;;;;;4972170;28;20495;-70
2022/05/07 06:06:48;;;;;;;6.33;6.03;;;17.10;99.90;;;;;;4972301;28;20468;-68
2022/05/07 06:09:15;;;;;;;5.80;5.50;;;17.80;99.90;;;;;;4972074;28;20498;-68
2022/05/07 06:11:41;;;;;;;6.27;5.97;;;18.50;99.90;;;;;;4971566;28;20471;-69
2022/05/07 06:14:08;;;;;;;6.63;6.20;;;18.90;99.90;;;;;;4971526;28;20562;-68
2022/05/07 06:16:35;;;;;;;6.97;6.47;;;19.30;99.90;;;;;;4972044;28;20448;-68
2022/05/07 06:19:03;;;;;;;7.00;6.70;;;19.60;99.90;;;;;;4971784;28;20468;-69
2022/05/07 06:21:29;;;;;;;7.03;6.50;;;19.80;99.90;;;;;;4971715;28;20467;-70
2022/05/07 06:27:27;;;;;;;7.80;7.30;;;19.60;99.90;;;;;;4971576;28;20510;-68
2022/05/07 06:29:27;;;;;;;10.23;7.40;;;18.90;99.90;;;;;;4971331;28;20553;-69
2022/05/07 06:31:53;;;;;;;7.97;7.13;;;18.70;99.90;;;;;;4971537;28;20519;-70
2022/05/07 06:34:23;;;;;;;9.13;8.43;;;18.50;99.90;;;;;;4971550;28;20499;-69
2022/05/07 06:36:50;;;;;;;7.77;7.17;;;18.30;99.90;;;;;;4971478;28;20467;-68
2022/05/07 06:39:18;;;;;;;7.73;7.10;;;18.10;99.90;;;;;;4971214;28;20522;-67
2022/05/07 06:41:44;;;;;;;8.77;8.07;;;18.10;99.90;;;;;;4971390;28;20550;-69
2022/05/07 06:44:11;;;;;;;7.77;7.07;;;17.90;99.90;;;;;;4971482;28;20597;-70
2022/05/07 06:46:38;;;;;;;7.13;6.73;;;17.90;99.90;;;;;;4971451;28;20471;-70
2022/05/07 06:49:04;;;;;;;7.90;7.30;;;17.90;99.90;;;;;;4971403;28;20526;-70
2022/05/07 06:51:33;;;;;;;9.20;7.43;;;17.90;99.90;;;;;;4970896;28;20522;-69
2022/05/07 06:54:00;;;;;;;7.77;7.00;;;17.90;99.90;;;;;;4971160;28;20945;-68
2022/05/07 06:56:26;;;;;;;7.53;6.93;;;17.90;99.90;;;;;;4971603;28;20464;-67
2022/05/07 06:58:53;;;;;;;7.33;6.70;;;18.00;99.90;;;;;;4971486;28;20468;-68
2022/05/07 07:01:19;;;;;;;7.33;6.80;;;18.10;99.90;;;;;;4970980;28;20459;-68
2022/05/07 07:03:46;;;;;;;7.77;7.10;;;18.20;99.90;;;;;;4971355;28;20562;-68
2022/05/07 07:06:13;;;;;;;7.17;6.57;;;18.40;99.90;;;;;;4971406;28;20498;-68
2022/05/07 07:08:41;;;;;;;7.20;6.70;;;18.50;99.90;;;;;;4971540;28;20571;-69
2022/05/07 07:11:08;;;;;;;7.17;6.57;;;18.80;99.90;;;;;;4971453;28;20475;-67
2022/05/07 07:13:34;;;;;;;7.33;6.67;;;19.50;99.90;;;;;;4972078;28;20900;-67
2022/05/07 07:16:01;;;;;;;7.03;6.63;;;20.00;99.90;;;;;;4975582;28;20464;-68
2022/05/07 07:18:28;;;;;;;6.43;5.93;;;20.40;99.90;;;;;;4975649;28;20468;-67
2022/05/07 07:20:54;;;;;;;6.43;6.00;;;20.90;99.90;;;;;;4975017;28;20471;-67
2022/05/07 07:23:21;;;;;;;6.77;6.27;;;21.30;99.90;;;;;;4974877;28;20515;-68
2022/05/07 07:25:49;;;;;;;5.77;5.37;;;21.70;99.90;;;;;;4974898;28;20987;-68
2022/05/07 07:28:16;;;;;;;6.43;5.97;;;21.80;99.90;;;;;;4975005;28;20469;-68
2022/05/07 07:30:43;;;;;;;5.20;4.80;;;21.60;99.90;;;;;;4974798;28;20836;-68
2022/05/07 07:33:13;;;;;;;5.60;5.30;;;21.30;99.90;;;;;;4974416;28;20519;-68
2022/05/07 07:35:40;;;;;;;5.53;5.17;;;21.00;99.90;;;;;;4974203;28;20991;-69
2022/05/07 07:38:06;;;;;;;3.83;3.73;;;20.80;99.90;;;;;;4974624;28;20463;-68
2022/05/07 07:40:33;;;;;;;4.03;3.80;;;20.50;99.90;;;;;;4974322;28;20475;-69
2022/05/07 07:43:01;;;;;;;3.63;3.53;;;20.20;99.90;;;;;;4974705;28;20470;-68
2022/05/07 07:48:13;;;;;;;3.77;3.57;;;20.20;99.90;;;;;;4974491;28;20448;-69
2022/05/07 07:50:40;;;;;;;3.63;3.33;;;20.30;99.90;;;;;;4974536;28;20537;-68
2022/05/07 07:53:09;;;;;;;4.37;3.97;;;20.50;99.90;;;;;;4974387;28;20518;-69
2022/05/07 07:55:36;;;;;;;3.80;3.60;;;20.50;99.90;;;;;;4974362;28;20507;-69
2022/05/07 07:58:06;;;;;;;3.97;3.87;;;20.30;99.90;;;;;;4974667;28;20554;-68
2022/05/07 08:00:34;;;;;;;4.23;3.77;;;20.20;99.90;;;;;;4974114;28;20471;-69
2022/05/07 08:03:03;;;;;;;4.03;3.73;;;20.30;99.90;;;;;;4974196;28;20464;-68
2022/05/07 08:05:32;;;;;;;3.70;3.50;;;20.40;99.90;;;;;;4973883;28;20479;-69
2022/05/07 08:13:34;;;;;;;4.40;4.00;;;20.50;99.90;;;;;;4973769;28;20451;-69
2022/05/07 08:16:01;;;;;;;4.00;3.07;;;20.40;99.90;;;;;;4974136;28;20479;-69
2022/05/07 08:18:27;;;;;;;4.20;3.90;;;20.40;99.90;;;;;;4973775;28;20861;-68
2022/05/07 08:20:55;;;;;;;4.13;3.83;;;20.10;99.90;;;;;;4973649;28;20464;-68
2022/05/07 08:23:22;;;;;;;4.67;4.27;;;19.90;99.90;;;;;;4973875;28;20471;-69
2022/05/07 08:25:49;;;;;;;4.27;4.10;;;19.70;99.90;;;;;;4973071;28;20967;-69
2022/05/07 08:28:16;;;;;;;4.83;4.03;;;19.40;99.90;;;;;;4973806;28;20669;-68
2022/05/07 08:30:44;;;;;;;4.53;4.03;;;19.20;99.90;;;;;;4973314;28;20972;-68
2022/05/07 08:33:11;;;;;;;4.50;4.20;;;19.30;99.90;;;;;;4973625;28;20464;-69
2022/05/07 08:35:38;;;;;;;5.03;4.63;;;19.30;99.90;;;;;;4973162;28;20488;-69
2022/05/07 08:38:05;;;;;;;6.40;5.53;;;19.30;99.90;;;;;;4973394;28;20630;-70
2022/05/07 08:40:32;;;;;;;5.37;4.87;;;19.40;99.90;;;;;;4973599;28;20471;-69
2022/05/07 08:42:59;;;;;;;5.00;4.63;;;19.50;99.90;;;;;;4973151;28;21000;-69
2022/05/07 08:45:26;;;;;;;4.90;4.50;;;19.60;99.90;;;;;;4973242;28;20542;-70
2022/05/07 08:47:53;;;;;;;4.70;3.77;;;19.70;99.90;;;;;;4973357;28;20467;-69
2022/05/07 08:50:21;;;;;;;5.47;4.10;;;19.60;99.90;;;;;;4973113;28;20498;-68
2022/05/07 08:52:49;;;;;;;3.10;3.00;;;19.60;99.90;;;;;;4973019;28;20834;-70
2022/05/07 08:55:17;;;;;;;3.50;3.20;;;19.50;99.90;;;;;;4972903;28;20487;-70
2022/05/07 08:57:46;;;;;;;3.70;3.50;;;19.50;99.90;;;;;;4972893;28;20945;-69
2022/05/07 09:00:15;;;;;;;4.10;3.90;;;19.50;99.90;;;;;;4972982;28;20514;-69
2022/05/07 09:02:43;;;;;;;4.03;3.83;;;19.40;99.90;;;;;;4957096;28;20464;-69
2022/05/07 09:05:13;;;;;;;4.53;4.20;;;19.50;99.90;;;;;;4972370;28;20542;-69
2022/05/07 09:07:41;;;;;;;5.10;4.70;;;19.50;99.90;;;;;;4972737;28;20964;-69
2022/05/07 09:10:11;;;;;;;5.63;4.53;;;19.70;99.90;;;;;;4972654;28;20558;-69
2022/05/07 09:12:38;;;;;;;4.83;4.50;;;19.90;99.90;;;;;;4972881;28;20554;-69
2022/05/07 09:15:07;;;;;;;4.87;4.60;;;20.00;99.90;;;;;;4972902;28;20582;-68
2022/05/07 09:17:35;;;;;;;4.00;3.80;;;20.10;99.90;;;;;;4973356;28;20468;-68
2022/05/07 09:20:13;;;;;;;4.20;4.00;;;20.00;99.90;;;;;;4973051;28;20466;-70
2022/05/07 09:22:51;;;;;;;3.53;3.23;;;20.10;99.90;;;;;;4972802;28;20578;-69
2022/05/07 09:25:22;;;;;;;3.57;3.43;;;19.90;99.90;;;;;;4973019;28;20494;-69
2022/05/07 09:27:51;;;;;;;4.40;3.47;;;19.90;99.90;;;;;;4972567;28;20475;-69
2022/05/07 09:30:23;;;;;;;5.40;3.33;;;20.00;99.90;;;;;;4972788;28;20534;-68
2022/05/07 09:32:51;;;;;;;4.10;3.90;;;20.10;99.90;;;;;;4972592;28;20488;-69
2022/05/07 09:38:06;;;;;;;4.40;3.80;;;20.00;99.90;;;;;;4972301;28;21033;-69
2022/05/07 09:40:37;;;;;;;3.43;3.23;;;20.00;99.90;;;;;;4972423;28;20500;-69
2022/05/07 09:43:04;;;;;;;2.53;2.43;;;20.00;99.90;;;;;;4972238;28;20452;-68
2022/05/07 09:45:31;;;;;;;3.30;3.00;;;20.00;99.90;;;;;;4972157;28;21026;-69
2022/05/07 09:47:58;;;;;;;3.00;2.90;;;20.10;99.90;;;;;;4972038;28;20456;-68
2022/05/07 09:58:37;;;;;;;3.80;3.67;;;20.50;99.90;;;;;;4972905;28;20432;-68
2022/05/07 10:01:20;;;;;;;5.27;3.70;;;20.50;99.90;;;;;;4972453;28;20467;-68
2022/05/07 10:03:57;;;;;;;3.93;3.73;;;20.60;99.90;;;;;;4972802;28;20494;-69
2022/05/07 10:06:40;;;;;;;3.17;2.97;;;20.50;99.90;;;;;;4972935;28;20443;-69
2022/05/07 10:09:25;;;;;;;6.53;3.83;;;20.50;99.90;;;;;;4973227;28;20456;-69
2022/05/07 10:11:54;;;;;;;3.83;3.50;;;20.50;99.90;;;;;;4972419;28;20617;-68
2022/05/07 10:14:29;;;;;;;3.03;2.93;;;20.70;99.90;;;;;;4995613;23;20565;-70
2022/05/07 10:17:00;;;;;;;3.00;3.00;;;20.80;99.90;;;;;;4972229;28;20467;-69
2022/05/07 10:19:38;;;;;;;2.83;2.73;;;20.80;99.90;;;;;;4971913;28;20526;-69
2022/05/07 10:22:17;;;;;;;2.60;2.50;;;20.80;99.90;;;;;;4971612;28;20471;-69
2022/05/07 10:24:45;;;;;;;3.00;2.80;;;20.80;99.90;;;;;;4972171;28;20484;-69
2022/05/07 10:27:24;;;;;;;2.73;2.63;;;20.70;99.90;;;;;;4971780;28;20467;-70
2022/05/07 10:29:51;;;;;;;2.60;2.50;;;20.60;99.90;;;;;;4974209;28;20943;-69
2022/05/07 10:32:21;;;;;;;2.80;2.60;;;20.50;99.90;;;;;;4974279;28;20467;-70
2022/05/07 10:34:52;;;;;;;2.43;2.27;;;20.40;99.90;;;;;;4972103;28;20924;-71
2022/05/07 10:37:20;;;;;;;1.73;1.73;;;20.40;99.90;;;;;;4971363;28;20584;-70
2022/05/07 10:39:53;;;;;;;2.13;2.00;;;20.40;99.90;;;;;;4971203;28;20495;-70
2022/05/07 10:42:21;;;;;;;2.67;2.50;;;20.50;99.90;;;;;;4976769;28;20807;-70
2022/05/07 10:44:49;;;;;;;2.63;2.33;;;20.50;99.90;;;;;;4975169;28;20480;-71
2022/05/07 10:47:18;;;;;;;2.53;2.47;;;20.60;99.90;;;;;;4974573;28;20547;-71
2022/05/07 10:49:52;;;;;;;1.80;1.80;;;20.60;99.90;;;;;;4977123;28;20490;-70
2022/05/07 10:52:32;;;;;;;2.33;2.23;;;20.70;99.90;;;;;;4975112;28;20459;-70
2022/05/07 10:55:11;;;;;;;2.30;2.20;;;20.80;99.90;;;;;;4976020;28;20594;-70
2022/05/07 10:57:45;;;;;;;2.20;2.20;;;21.00;99.90;;;;;;4975564;28;20837;-71
2022/05/07 11:00:16;;;;;;;2.30;2.20;;;20.90;99.90;;;;;;4975176;28;20526;-71
2022/05/07 11:02:43;;;;;;;2.77;2.43;;;20.90;99.90;;;;;;4968570;28;20459;-71
2022/05/07 11:05:11;;;;;;;3.17;2.23;;;21.00;99.90;;;;;;4976193;28;20827;-71
2022/05/07 11:07:40;;;;;;;2.03;1.93;;;21.10;99.90;;;;;;4974601;28;20496;-71
2022/05/07 11:10:08;;;;;;;2.53;2.43;;;21.10;99.90;;;;;;4974917;28;20466;-71
2022/05/07 11:12:36;;;;;;;2.47;2.27;;;21.00;99.90;;;;;;4975363;28;20468;-70
2022/05/07 11:15:04;;;;;;;2.60;2.50;;;21.00;99.90;;;;;;4975523;28;20502;-70
2022/05/07 11:17:33;;;;;;;2.50;2.40;;;20.90;99.90;;;;;;4975142;28;20943;-70
2022/05/07 11:20:00;;;;;;;2.60;2.37;;;20.70;99.90;;;;;;4975174;28;20468;-70
2022/05/07 11:22:30;;;;;;;3.60;1.83;;;20.60;99.90;;;;;;4974506;28;20583;-70
2022/05/07 11:24:59;;;;;;;2.90;2.70;;;20.60;99.90;;;;;;4975217;28;20484;-70
2022/05/07 11:27:32;;;;;;;3.73;3.53;;;20.70;99.90;;;;;;4974749;28;20961;-70
2022/05/07 11:29:59;;;;;;;2.30;2.10;;;20.50;99.90;;;;;;4974566;28;20463;-70
2022/05/07 11:32:36;;;;;;;2.30;2.20;;;20.50;99.90;;;;;;4974776;28;20467;-70
2022/05/07 11:35:03;;;;;;;2.97;2.17;;;20.50;99.90;;;;;;4974740;28;20498;-70
2022/05/07 11:37:38;;;;;;;2.77;2.00;;;20.30;99.90;;;;;;4974306;28;20471;-70
2022/05/07 11:40:08;;;;;;;2.23;2.17;;;20.30;99.90;;;;;;4974517;28;20471;-70
2022/05/07 11:42:36;;;;;;;2.40;2.33;;;20.40;99.90;;;;;;4974674;28;20475;-70
2022/05/07 11:47:54;;;;;;;2.17;2.07;;;20.50;99.90;;;;;;4975030;28;20498;-71
2022/05/07 11:50:22;;;;;;;2.37;2.37;;;20.60;99.90;;;;;;4969110;28;20544;-71
2022/05/07 11:52:49;;;;;;;2.17;2.07;;;20.70;99.90;;;;;;4993186;28;20575;-71
2022/05/07 11:55:18;;;;;;;2.20;2.20;;;20.80;99.90;;;;;;4994190;28;20502;-71
2022/05/07 11:57:46;;;;;;;2.23;2.23;;;20.90;99.90;;;;;;4994123;28;20852;-71
2022/05/07 12:00:15;;;;;;;2.53;2.43;;;21.10;99.90;;;;;;4992997;28;20526;-71
2022/05/07 12:02:50;;;;;;;2.60;2.50;;;21.20;99.90;;;;;;4993847;28;20798;-72
2022/05/07 12:05:17;;;;;;;1.93;1.80;;;21.20;99.90;;;;;;4993784;28;20528;-71
2022/05/07 12:07:47;;;;;;;2.20;2.10;;;21.20;99.90;;;;;;4993086;28;20537;-69
2022/05/07 12:10:13;;;;;;;2.47;2.13;;;21.40;99.90;;;;;;4993463;28;20541;-71
2022/05/07 12:12:41;;;;;;;2.57;2.37;;;21.60;99.90;;;;;;4993915;28;20466;-70
2022/05/07 12:15:09;;;;;;;1.90;1.83;;;21.60;99.90;;;;;;4993702;28;20487;-70
2022/05/07 12:17:53;;;;;;;1.93;1.83;;;21.70;99.90;;;;;;4993584;28;20466;-71
2022/05/07 12:20:21;;;;;;;2.17;2.07;;;21.90;99.90;;;;;;4993301;28;20778;-70
2022/05/07 12:31:02;;;;;;;3.90;3.70;;;22.10;99.90;;;;;;4988866;28;20595;-72
2022/05/07 12:33:29;;;;;;;2.13;2.03;;;22.10;99.90;;;;;;4993425;28;20537;-70
2022/05/07 12:35:56;;;;;;;2.07;1.97;;;22.00;99.90;;;;;;4992804;28;20510;-69
2022/05/07 12:38:22;;;;;;;1.90;1.90;;;21.80;99.90;;;;;;4993305;28;20471;-70
2022/05/07 12:40:49;;;;;;;2.23;2.13;;;21.80;99.90;;;;;;4992474;28;20459;-70
2022/05/07 12:43:16;;;;;;;1.63;1.63;;;21.80;99.90;;;;;;4993171;28;20833;-69
2022/05/07 12:45:44;;;;;;;1.77;1.67;;;21.90;99.90;;;;;;4993025;28;20475;-69
2022/05/07 12:48:11;;;;;;;2.83;2.77;;;21.80;99.90;;;;;;4993093;28;20893;-70
2022/05/07 12:50:38;;;;;;;3.10;3.00;;;21.70;99.90;;;;;;4992045;28;20567;-70
2022/05/07 12:53:05;;;;;;;2.67;2.57;;;21.80;99.90;;;;;;4992566;28;20462;-69
2022/05/07 12:55:32;;;;;;;2.70;2.67;;;21.60;99.90;;;;;;4993054;28;20555;-69
2022/05/07 12:57:59;;;;;;;2.77;2.67;;;21.70;99.90;;;;;;4992928;28;20466;-70
2022/05/07 13:00:26;;;;;;;2.90;2.70;;;21.80;99.90;;;;;;4992313;28;20553;-70
2022/05/07 13:02:56;;;;;;;2.70;2.50;;;21.80;99.90;;;;;;4994035;28;20971;-71
2022/05/07 13:05:23;;;;;;;3.37;3.07;;;21.70;99.90;;;;;;4994170;28;20518;-71
2022/05/07 13:07:50;;;;;;;2.67;2.57;;;21.80;99.90;;;;;;4992597;28;20466;-70
2022/05/07 13:10:17;;;;;;;4.30;4.00;;;22.00;99.90;;;;;;4992410;28;20578;-71
2022/05/07 13:12:46;;;;;;;3.63;3.43;;;22.00;99.90;;;;;;4992022;28;20475;-70
2022/05/07 13:15:12;;;;;;;3.30;3.10;;;21.90;99.90;;;;;;4992215;28;20494;-71
2022/05/07 13:17:39;;;;;;;4.00;3.73;;;21.90;99.90;;;;;;4992394;28;20470;-71
2022/05/07 13:20:09;;;;;;;2.77;2.67;;;21.80;99.90;;;;;;4969033;28;20460;-70
2022/05/07 13:22:36;;;;;;;3.40;3.10;;;21.80;99.90;;;;;;4971984;28;20545;-70
2022/05/07 13:25:04;;;;;;;3.20;3.10;;;21.80;99.90;;;;;;4972943;28;20998;-69
2022/05/07 13:27:30;;;;;;;3.20;3.00;;;21.90;99.90;;;;;;4973888;28;20466;-70
2022/05/07 13:29:57;;;;;;;3.30;2.77;;;21.90;99.90;;;;;;4973287;28;20965;-69
2022/05/07 13:32:24;;;;;;;2.53;2.40;;;22.10;99.90;;;;;;4973653;28;20976;-70
2022/05/07 13:34:51;;;;;;;2.80;2.33;;;22.30;99.90;;;;;;4974654;28;20563;-70
2022/05/07 13:37:19;;;;;;;3.10;3.00;;;22.40;99.90;;;;;;4972677;28;20526;-68
2022/05/07 13:39:46;;;;;;;2.60;2.50;;;22.40;99.90;;;;;;4972362;28;20467;-69
2022/05/07 13:42:13;;;;;;;3.27;3.07;;;22.50;99.90;;;;;;4972668;28;21007;-69
2022/05/07 13:44:39;;;;;;;3.23;3.13;;;22.40;99.90;;;;;;4972566;28;20484;-69
2022/05/07 13:47:07;;;;;;;3.00;2.90;;;22.30;99.90;;;;;;4972144;28;20490;-69
2022/05/07 13:49:33;;;;;;;3.50;3.33;;;22.20;99.90;;;;;;4970387;28;20467;-69
2022/05/07 13:52:01;;;;;;;2.50;2.50;;;22.20;99.90;;;;;;4980963;28;20470;-70
2022/05/07 13:54:29;;;;;;;2.80;2.80;;;22.10;99.90;;;;;;4991271;28;20546;-69
2022/05/07 13:56:56;;;;;;;3.30;3.10;;;22.20;99.90;;;;;;4991564;28;20910;-69
2022/05/07 13:59:25;;;;;;;3.13;2.97;;;22.20;99.90;;;;;;4991213;28;20466;-69
2022/05/07 14:01:51;;;;;;;4.07;3.77;;;22.20;99.90;;;;;;4990565;28;20829;-71
2022/05/07 14:04:18;;;;;;;3.50;3.13;;;22.20;99.90;;;;;;4991225;28;20490;-68
2022/05/07 14:06:45;;;;;;;3.80;3.60;;;22.10;99.90;;;;;;4991064;28;20466;-69
2022/05/07 14:09:12;;;;;;;4.10;3.90;;;22.00;99.90;;;;;;4991019;28;20525;-69
2022/05/07 14:11:40;;;;;;;3.80;3.60;;;21.80;99.90;;;;;;4991581;28;20550;-69
2022/05/07 14:14:07;;;;;;;6.07;3.80;;;21.70;99.90;;;;;;4991157;28;20582;-69
2022/05/07 14:16:35;;;;;;;5.00;4.60;;;21.70;99.90;;;;;;4991422;28;20545;-69
2022/05/07 14:19:01;;;;;;;4.50;4.27;;;21.80;99.90;;;;;;4991604;28;20574;-69
2022/05/07 14:21:28;;;;;;;5.10;4.80;;;21.70;99.90;;;;;;4990657;28;20525;-69
2022/05/07 14:23:55;;;;;;;4.60;4.30;;;21.60;99.90;;;;;;4990767;28;20514;-69
2022/05/07 14:26:21;;;;;;;4.93;4.53;;;21.40;99.90;;;;;;4991276;28;20506;-69
2022/05/07 14:28:49;;;;;;;5.70;5.27;;;21.30;99.90;;;;;;4991108;28;20462;-69
2022/05/07 14:31:16;;;;;;;5.30;4.80;;;21.20;99.90;;;;;;4990625;28;20529;-69
2022/05/07 14:33:47;;;;;;;5.13;4.83;;;21.00;99.90;;;;;;4991238;28;20909;-69
2022/05/07 14:36:13;;;;;;;5.73;5.43;;;21.10;99.90;;;;;;4990781;28;20487;-69
2022/05/07 14:38:40;;;;;;;6.50;6.00;;;21.00;99.90;;;;;;4990347;28;20522;-69
2022/05/07 14:41:07;;;;;;;6.03;5.53;;;20.90;99.90;;;;;;4966756;28;20522;-69
2022/05/07 14:43:33;;;;;;;5.90;5.50;;;21.00;99.90;;;;;;4971880;28;20964;-70
2022/05/07 14:46:01;;;;;;;6.70;5.73;;;20.70;99.90;;;;;;4971832;28;20906;-69
2022/05/07 14:48:28;;;;;;;6.63;6.03;;;20.60;99.90;;;;;;4971872;28;20844;-69
2022/05/07 14:50:55;;;;;;;6.23;5.63;;;20.60;99.90;;;;;;4971222;28;20928;-70
2022/05/07 14:53:22;;;;;;;4.80;4.60;;;20.50;99.90;;;;;;4971440;28;20472;-70
2022/05/07 14:55:49;;;;;;;5.80;5.40;;;20.50;99.90;;;;;;4971811;28;20488;-69
2022/05/07 14:58:17;;;;;;;6.07;5.57;;;20.60;99.90;;;;;;4971573;28;20499;-69
2022/05/07 15:00:43;;;;;;;5.60;5.10;;;20.60;99.90;;;;;;4971776;28;20759;-71
2022/05/07 15:03:13;;;;;;;6.23;5.73;;;20.60;99.90;;;;;;4972208;28;20472;-71
2022/05/07 15:05:39;;;;;;;5.80;5.37;;;20.50;99.90;;;;;;4971021;28;20498;-72
2022/05/07 15:10:51;;;;;;;6.30;5.60;;;20.70;99.90;;;;;;4970994;28;20821;-72
2022/05/07 15:13:18;;;;;;;6.77;6.23;;;20.70;99.90;;;;;;4971984;28;20463;-72
2022/05/07 15:15:44;;;;;;;5.90;5.50;;;20.70;99.90;;;;;;4971835;28;20496;-72
2022/05/07 15:18:12;;;;;;;6.13;5.70;;;20.60;99.90;;;;;;4971613;28;20488;-72
2022/05/07 15:20:39;;;;;;;6.07;5.47;;;20.40;99.90;;;;;;4974198;28;20528;-72
2022/05/07 15:23:06;;;;;;;5.87;5.37;;;20.20;99.90;;;;;;4991052;28;20467;-72
2022/05/07 15:25:32;;;;;;;5.13;4.73;;;20.10;99.90;;;;;;4991023;28;20497;-72
2022/05/07 15:27:59;;;;;;;5.20;4.80;;;20.00;99.90;;;;;;4991343;28;20458;-72
2022/05/07 15:30:26;;;;;;;5.60;5.10;;;19.90;99.90;;;;;;4990571;28;20494;-72
2022/05/07 15:38:22;;;;;;;7.37;4.30;;;19.70;99.90;;;;;;4994510;28;20506;-71
2022/05/07 15:40:50;;;;;;;3.47;3.37;;;19.70;99.90;;;;;;4994229;28;20458;-71
2022/05/07 15:43:18;;;;;;;3.60;3.50;;;19.80;99.90;;;;;;4995201;28;20459;-71
2022/05/07 15:45:46;;;;;;;4.20;4.00;;;19.90;99.90;;;;;;4994515;28;20846;-71
2022/05/07 15:48:14;;;;;;;3.83;3.40;;;19.80;99.90;;;;;;4994643;28;20491;-72
2022/05/07 15:50:42;;;;;;;4.50;4.20;;;19.80;99.90;;;;;;4979812;28;20540;-69
2022/05/07 15:53:09;;;;;;;4.37;4.07;;;19.80;99.90;;;;;;4985881;28;20745;-69
2022/05/07 15:55:36;;;;;;;3.77;3.57;;;19.80;99.90;;;;;;4974603;28;20475;-69
2022/05/07 15:58:03;;;;;;;5.23;3.70;;;19.80;99.90;;;;;;4974764;28;20863;-69
2022/05/07 16:00:30;;;;;;;3.93;3.73;;;19.60;99.90;;;;;;4974287;28;20835;-70
2022/05/07 16:02:56;;;;;;;4.23;3.93;;;19.60;99.90;;;;;;4974472;28;20534;-69
2022/05/07 16:05:24;;;;;;;3.73;3.53;;;19.50;99.90;;;;;;4974708;28;20956;-70
2022/05/07 16:07:53;;;;;;;5.03;4.73;;;19.30;99.90;;;;;;4973905;28;20466;-69
2022/05/07 16:10:20;;;;;;;4.63;4.33;;;19.00;99.90;;;;;;4974423;28;20474;-69
2022/05/07 16:12:46;;;;;;;4.03;3.73;;;18.90;99.90;;;;;;4974752;28;20503;-69
2022/05/07 16:15:13;;;;;;;5.20;4.80;;;18.90;99.90;;;;;;5004914;23;20609;-70
2022/05/07 16:17:40;;;;;;;4.30;4.00;;;18.80;99.90;;;;;;4996068;28;20486;-69
2022/05/07 16:20:07;;;;;;;4.17;3.80;;;18.80;99.90;;;;;;4993832;28;20489;-70
2022/05/07 16:25:22;;;;;;;7.27;3.80;;;18.70;99.90;;;;;;4994480;28;20537;-70
2022/05/07 16:27:48;;;;;;;4.67;4.23;;;18.60;99.90;;;;;;4993557;28;20467;-69
2022/05/07 16:30:16;;;;;;;4.40;4.00;;;18.50;99.90;;;;;;4993239;28;20467;-70
2022/05/07 16:32:42;;;;;;;4.57;4.17;;;18.50;99.90;;;;;;4993754;28;20471;-69
2022/05/07 16:35:09;;;;;;;4.07;3.87;;;18.50;99.90;;;;;;4993271;28;20487;-69
2022/05/07 16:37:36;;;;;;;4.43;4.13;;;18.50;99.90;;;;;;4992223;28;20515;-68
2022/05/07 16:40:03;;;;;;;4.43;4.13;;;18.50;99.90;;;;;;4988828;28;20864;-69
2022/05/07 16:42:31;;;;;;;4.13;3.83;;;18.40;99.90;;;;;;4992799;28;20478;-70
2022/05/07 16:44:57;;;;;;;3.57;3.40;;;18.40;99.90;;;;;;4993053;28;20541;-70
2022/05/07 16:47:24;;;;;;;3.77;3.60;;;18.40;99.90;;;;;;4992695;28;20528;-69
2022/05/07 16:49:51;;;;;;;3.80;3.60;;;18.40;99.90;;;;;;4993905;28;20466;-71
2022/05/07 16:52:18;;;;;;;3.90;3.70;;;18.30;99.90;;;;;;4994801;28;20463;-70
2022/05/07 16:54:44;;;;;;;3.10;2.90;;;18.30;99.90;;;;;;4994793;28;20540;-69
2022/05/07 16:57:13;;;;;;;2.73;2.63;;;18.30;99.90;;;;;;4992578;28;20911;-69
2022/05/07 16:59:42;;;;;;;2.83;2.73;;;18.20;99.90;;;;;;4992405;28;20470;-70
2022/05/07 17:02:09;;;;;;;2.93;2.83;;;18.20;99.90;;;;;;4992693;28;20467;-68
2022/05/07 17:04:36;;;;;;;3.20;3.03;;;18.20;99.90;;;;;;4992878;28;20470;-69
2022/05/07 17:07:03;;;;;;;3.40;3.20;;;18.10;99.90;;;;;;4991908;28;20928;-69
2022/05/07 17:09:31;;;;;;;3.70;3.50;;;18.00;99.90;;;;;;4991931;28;20467;-69
2022/05/07 17:11:57;;;;;;;3.27;2.90;;;17.90;99.90;;;;;;4992401;28;20473;-69
2022/05/07 17:14:24;;;;;;;3.10;2.90;;;17.90;99.90;;;;;;4992476;28;20484;-70
2022/05/07 17:16:52;;;;;;;2.97;2.77;;;17.70;99.90;;;;;;4992447;28;20545;-69
2022/05/07 17:19:19;;;;;;;2.90;2.80;;;17.70;99.90;;;;;;4984826;28;20525;-69
2022/05/07 17:21:46;;;;;;;2.80;2.70;;;17.70;99.90;;;;;;4992377;28;20459;-70
2022/05/07 17:24:13;;;;;;;3.47;3.33;;;17.70;99.90;;;;;;4998938;28;20469;-71
2022/05/07 17:26:40;;;;;;;2.70;2.50;;;17.80;99.90;;;;;;4993668;28;20971;-70
2022/05/07 17:29:07;;;;;;;2.80;2.70;;;17.80;99.90;;;;;;4992732;28;20578;-70
2022/05/07 17:31:33;;;;;;;5.27;3.60;;;17.90;99.90;;;;;;4991753;28;20463;-69
2022/05/07 17:34:02;;;;;;;3.53;3.33;;;17.90;99.90;;;;;;4992020;28;20477;-70
2022/05/07 17:36:28;;;;;;;3.53;3.17;;;17.80;99.90;;;;;;4991657;28;20490;-70